sensor_id;sensor_type;location;lat;lon;timestamp;temperature;humidity
41318;DHT22;27067;51.554;7.026;2022-12-18T00:01:21;15.70;60.40
41318;DHT22;27067;51.554;7.026;2022-12-18T00:03:47;15.70;60.50
41318;DHT22;27067;51.554;7.026;2022-12-18T00:06:14;15.70;60.50
41318;DHT22;27067;51.554;7.026;2022-12-18T00:08:41;15.70;61.20
41318;DHT22;27067;51.554;7.026;2022-12-18T00:11:08;17.60;61.70
41318;DHT22;27067;51.554;7.026;2022-12-18T00:13:34;15.70;60.60
41318;DHT22;27067;51.554;7.026;2022-12-18T00:16:09;15.70;60.70
41318;DHT22;27067;51.554;7.026;2022-12-18T00:18:35;15.60;60.70
41318;DHT22;27067;51.554;7.026;2022-12-18T00:21:03;15.60;60.70
41318;DHT22;27067;51.554;7.026;2022-12-18T00:23:30;15.60;60.70
41318;DHT22;27067;51.554;7.026;2022-12-18T00:26:05;15.70;60.80
41318;DHT22;27067;51.554;7.026;2022-12-18T00:28:31;15.60;60.80
41318;DHT22;27067;51.554;7.026;2022-12-18T00:31:07;15.60;60.90
41318;DHT22;27067;51.554;7.026;2022-12-18T00:33:34;15.60;61.00
41318;DHT22;27067;51.554;7.026;2022-12-18T00:36:04;15.60;61.00
41318;DHT22;27067;51.554;7.026;2022-12-18T00:38:30;15.50;61.00
41318;DHT22;27067;51.554;7.026;2022-12-18T00:40:56;15.50;61.00
41318;DHT22;27067;51.554;7.026;2022-12-18T00:43:22;15.50;61.00
41318;DHT22;27067;51.554;7.026;2022-12-18T00:45:48;15.50;61.10
41318;DHT22;27067;51.554;7.026;2022-12-18T00:48:16;15.50;61.20
41318;DHT22;27067;51.554;7.026;2022-12-18T00:50:42;15.50;61.20
41318;DHT22;27067;51.554;7.026;2022-12-18T00:53:08;15.40;61.30
41318;DHT22;27067;51.554;7.026;2022-12-18T00:55:33;15.50;61.30
41318;DHT22;27067;51.554;7.026;2022-12-18T00:57:59;15.40;61.30
41318;DHT22;27067;51.554;7.026;2022-12-18T01:00:25;15.40;61.40
41318;DHT22;27067;51.554;7.026;2022-12-18T01:02:51;15.40;61.50
41318;DHT22;27067;51.554;7.026;2022-12-18T01:05:16;15.40;61.50
41318;DHT22;27067;51.554;7.026;2022-12-18T01:07:42;15.40;61.40
41318;DHT22;27067;51.554;7.026;2022-12-18T01:10:11;15.40;61.40
41318;DHT22;27067;51.554;7.026;2022-12-18T01:12:37;15.40;61.50
41318;DHT22;27067;51.554;7.026;2022-12-18T01:15:03;15.40;61.50
41318;DHT22;27067;51.554;7.026;2022-12-18T01:17:29;15.40;61.50
41318;DHT22;27067;51.554;7.026;2022-12-18T01:19:54;15.30;61.50
41318;DHT22;27067;51.554;7.026;2022-12-18T01:22:20;15.30;61.50
41318;DHT22;27067;51.554;7.026;2022-12-18T01:24:46;15.30;61.50
41318;DHT22;27067;51.554;7.026;2022-12-18T01:27:11;15.30;61.60
41318;DHT22;27067;51.554;7.026;2022-12-18T01:29:37;15.30;62.10
41318;DHT22;27067;51.554;7.026;2022-12-18T01:32:02;15.30;62.30
41318;DHT22;27067;51.554;7.026;2022-12-18T01:34:28;15.20;62.30
41318;DHT22;27067;51.554;7.026;2022-12-18T01:36:54;15.30;62.50
41318;DHT22;27067;51.554;7.026;2022-12-18T01:39:19;15.20;62.60
41318;DHT22;27067;51.554;7.026;2022-12-18T01:41:46;15.20;62.70
41318;DHT22;27067;51.554;7.026;2022-12-18T01:45:02;15.20;63.30
41318;DHT22;27067;51.554;7.026;2022-12-18T01:47:44;15.20;62.70
41318;DHT22;27067;51.554;7.026;2022-12-18T01:52:47;14.00;62.10
41318;DHT22;27067;51.554;7.026;2022-12-18T01:55:16;15.20;62.80
41318;DHT22;27067;51.554;7.026;2022-12-18T01:57:43;15.20;62.80
41318;DHT22;27067;51.554;7.026;2022-12-18T02:00:17;15.20;62.80
41318;DHT22;27067;51.554;7.026;2022-12-18T02:02:44;15.10;62.80
41318;DHT22;27067;51.554;7.026;2022-12-18T02:05:11;15.10;62.80
41318;DHT22;27067;51.554;7.026;2022-12-18T02:10:31;15.10;63.30
41318;DHT22;27067;51.554;7.026;2022-12-18T02:15:48;15.10;63.00
41318;DHT22;27067;51.554;7.026;2022-12-18T02:18:24;15.10;63.20
41318;DHT22;27067;51.554;7.026;2022-12-18T02:23:47;15.10;63.10
41318;DHT22;27067;51.554;7.026;2022-12-18T02:26:19;15.00;63.20
41318;DHT22;27067;51.554;7.026;2022-12-18T02:28:51;15.00;63.20
41318;DHT22;27067;51.554;7.026;2022-12-18T02:31:23;15.00;63.20
41318;DHT22;27067;51.554;7.026;2022-12-18T02:33:52;15.00;63.10
41318;DHT22;27067;51.554;7.026;2022-12-18T02:36:20;15.00;63.10
41318;DHT22;27067;51.554;7.026;2022-12-18T02:38:47;15.00;63.10
41318;DHT22;27067;51.554;7.026;2022-12-18T02:41:14;15.00;63.00
41318;DHT22;27067;51.554;7.026;2022-12-18T02:43:49;15.00;62.90
41318;DHT22;27067;51.554;7.026;2022-12-18T02:46:34;15.00;63.10
41318;DHT22;27067;51.554;7.026;2022-12-18T02:57:10;14.90;63.20
41318;DHT22;27067;51.554;7.026;2022-12-18T02:59:53;14.90;63.40
41318;DHT22;27067;51.554;7.026;2022-12-18T03:07:37;14.90;64.00
41318;DHT22;27067;51.554;7.026;2022-12-18T03:10:06;14.90;64.20
41318;DHT22;27067;51.554;7.026;2022-12-18T03:12:39;15.00;64.20
41318;DHT22;27067;51.554;7.026;2022-12-18T03:15:29;15.10;64.10
41318;DHT22;27067;51.554;7.026;2022-12-18T03:18:03;15.20;63.90
41318;DHT22;27067;51.554;7.026;2022-12-18T03:20:31;15.30;63.70
41318;DHT22;27067;51.554;7.026;2022-12-18T03:23:23;15.40;63.50
41318;DHT22;27067;51.554;7.026;2022-12-18T03:25:52;15.50;63.40
41318;DHT22;27067;51.554;7.026;2022-12-18T03:28:21;15.50;63.20
41318;DHT22;27067;51.554;7.026;2022-12-18T03:30:51;15.60;63.10
41318;DHT22;27067;51.554;7.026;2022-12-18T03:36:08;15.60;62.90
41318;DHT22;27067;51.554;7.026;2022-12-18T03:38:34;15.60;62.90
41318;DHT22;27067;51.554;7.026;2022-12-18T03:41:19;15.60;62.90
41318;DHT22;27067;51.554;7.026;2022-12-18T03:46:36;15.50;62.80
41318;DHT22;27067;51.554;7.026;2022-12-18T03:49:25;15.50;62.90
41318;DHT22;27067;51.554;7.026;2022-12-18T03:54:27;15.40;63.40
41318;DHT22;27067;51.554;7.026;2022-12-18T03:57:01;15.30;63.40
41318;DHT22;27067;51.554;7.026;2022-12-18T03:59:29;15.30;63.50
41318;DHT22;27067;51.554;7.026;2022-12-18T04:01:56;15.30;63.60
41318;DHT22;27067;51.554;7.026;2022-12-18T04:04:24;15.30;63.60
41318;DHT22;27067;51.554;7.026;2022-12-18T04:06:52;15.30;63.50
41318;DHT22;27067;51.554;7.026;2022-12-18T04:09:19;15.30;63.40
41318;DHT22;27067;51.554;7.026;2022-12-18T04:11:46;15.30;63.40
41318;DHT22;27067;51.554;7.026;2022-12-18T04:14:12;15.20;63.30
41318;DHT22;27067;51.554;7.026;2022-12-18T04:16:37;15.20;63.20
41318;DHT22;27067;51.554;7.026;2022-12-18T04:19:03;15.20;63.10
41318;DHT22;27067;51.554;7.026;2022-12-18T04:21:29;15.20;63.00
41318;DHT22;27067;51.554;7.026;2022-12-18T04:23:55;15.20;63.00
41318;DHT22;27067;51.554;7.026;2022-12-18T04:26:20;15.20;63.00
41318;DHT22;27067;51.554;7.026;2022-12-18T04:28:46;15.20;62.90
41318;DHT22;27067;51.554;7.026;2022-12-18T04:31:12;15.20;63.00
41318;DHT22;27067;51.554;7.026;2022-12-18T04:33:38;15.10;63.20
41318;DHT22;27067;51.554;7.026;2022-12-18T04:36:04;15.10;63.20
41318;DHT22;27067;51.554;7.026;2022-12-18T04:38:29;14.40;62.90
41318;DHT22;27067;51.554;7.026;2022-12-18T04:40:55;15.00;63.40
41318;DHT22;27067;51.554;7.026;2022-12-18T04:43:20;15.00;63.40
41318;DHT22;27067;51.554;7.026;2022-12-18T04:45:46;14.90;63.50
41318;DHT22;27067;51.554;7.026;2022-12-18T04:48:12;14.90;63.80
41318;DHT22;27067;51.554;7.026;2022-12-18T04:50:37;15.00;63.90
41318;DHT22;27067;51.554;7.026;2022-12-18T04:53:03;15.00;63.90
41318;DHT22;27067;51.554;7.026;2022-12-18T04:55:28;15.10;63.90
41318;DHT22;27067;51.554;7.026;2022-12-18T04:57:54;15.20;63.80
41318;DHT22;27067;51.554;7.026;2022-12-18T05:00:21;15.20;63.70
41318;DHT22;27067;51.554;7.026;2022-12-18T05:02:46;15.30;63.80
41318;DHT22;27067;51.554;7.026;2022-12-18T05:05:12;15.30;64.50
41318;DHT22;27067;51.554;7.026;2022-12-18T05:07:38;15.40;63.90
41318;DHT22;27067;51.554;7.026;2022-12-18T05:10:04;15.40;63.90
41318;DHT22;27067;51.554;7.026;2022-12-18T05:12:31;15.40;63.90
41318;DHT22;27067;51.554;7.026;2022-12-18T05:14:56;15.40;63.90
41318;DHT22;27067;51.554;7.026;2022-12-18T05:17:22;15.40;63.90
41318;DHT22;27067;51.554;7.026;2022-12-18T05:19:47;15.40;63.90
41318;DHT22;27067;51.554;7.026;2022-12-18T05:22:13;15.50;64.00
41318;DHT22;27067;51.554;7.026;2022-12-18T05:24:38;15.50;63.80
41318;DHT22;27067;51.554;7.026;2022-12-18T05:27:04;15.60;63.40
41318;DHT22;27067;51.554;7.026;2022-12-18T05:29:29;15.60;63.00
41318;DHT22;27067;51.554;7.026;2022-12-18T05:31:55;15.60;62.50
41318;DHT22;27067;51.554;7.026;2022-12-18T05:34:21;15.70;62.10
41318;DHT22;27067;51.554;7.026;2022-12-18T05:36:46;15.70;61.80
41318;DHT22;27067;51.554;7.026;2022-12-18T05:39:12;15.70;61.70
41318;DHT22;27067;51.554;7.026;2022-12-18T05:41:38;15.70;61.70
41318;DHT22;27067;51.554;7.026;2022-12-18T05:44:03;15.70;61.60
41318;DHT22;27067;51.554;7.026;2022-12-18T05:46:29;15.70;61.60
41318;DHT22;27067;51.554;7.026;2022-12-18T05:48:55;15.60;61.50
41318;DHT22;27067;51.554;7.026;2022-12-18T05:51:21;15.60;61.50
41318;DHT22;27067;51.554;7.026;2022-12-18T05:53:47;15.60;61.40
41318;DHT22;27067;51.554;7.026;2022-12-18T05:56:17;15.50;61.40
41318;DHT22;27067;51.554;7.026;2022-12-18T05:58:43;15.50;61.30
41318;DHT22;27067;51.554;7.026;2022-12-18T06:01:18;15.50;61.40
41318;DHT22;27067;51.554;7.026;2022-12-18T06:03:44;15.50;61.20
41318;DHT22;27067;51.554;7.026;2022-12-18T06:06:22;15.50;61.10
41318;DHT22;27067;51.554;7.026;2022-12-18T06:08:49;15.40;61.00
41318;DHT22;27067;51.554;7.026;2022-12-18T06:11:18;15.40;60.90
41318;DHT22;27067;51.554;7.026;2022-12-18T06:13:43;15.40;60.70
41318;DHT22;27067;51.554;7.026;2022-12-18T06:16:09;15.50;60.70
41318;DHT22;27067;51.554;7.026;2022-12-18T06:18:35;15.50;60.60
41318;DHT22;27067;51.554;7.026;2022-12-18T06:21:01;15.50;60.60
41318;DHT22;27067;51.554;7.026;2022-12-18T06:23:27;15.40;60.70
41318;DHT22;27067;51.554;7.026;2022-12-18T06:25:53;15.40;61.30
41318;DHT22;27067;51.554;7.026;2022-12-18T06:28:19;15.50;61.10
41318;DHT22;27067;51.554;7.026;2022-12-18T06:30:45;15.50;61.00
41318;DHT22;27067;51.554;7.026;2022-12-18T06:33:11;15.60;61.00
41318;DHT22;27067;51.554;7.026;2022-12-18T06:35:37;15.60;60.90
41318;DHT22;27067;51.554;7.026;2022-12-18T06:38:03;15.70;60.80
41318;DHT22;27067;51.554;7.026;2022-12-18T06:40:29;15.70;60.70
41318;DHT22;27067;51.554;7.026;2022-12-18T06:42:54;15.80;60.70
41318;DHT22;27067;51.554;7.026;2022-12-18T06:45:20;15.90;60.60
41318;DHT22;27067;51.554;7.026;2022-12-18T06:47:45;15.90;60.50
41318;DHT22;27067;51.554;7.026;2022-12-18T06:50:12;15.90;60.30
41318;DHT22;27067;51.554;7.026;2022-12-18T06:52:38;15.90;60.30
41318;DHT22;27067;51.554;7.026;2022-12-18T06:55:06;15.90;60.20
41318;DHT22;27067;51.554;7.026;2022-12-18T06:57:32;15.90;60.20
41318;DHT22;27067;51.554;7.026;2022-12-18T06:59:57;15.80;60.10
41318;DHT22;27067;51.554;7.026;2022-12-18T07:02:25;15.80;60.20
41318;DHT22;27067;51.554;7.026;2022-12-18T07:04:50;15.80;60.20
41318;DHT22;27067;51.554;7.026;2022-12-18T07:07:16;15.70;60.10
41318;DHT22;27067;51.554;7.026;2022-12-18T07:09:42;15.70;60.20
41318;DHT22;27067;51.554;7.026;2022-12-18T07:12:08;15.70;60.20
41318;DHT22;27067;51.554;7.026;2022-12-18T07:14:33;15.70;60.30
41318;DHT22;27067;51.554;7.026;2022-12-18T07:16:59;15.70;60.50
41318;DHT22;27067;51.554;7.026;2022-12-18T07:19:25;15.70;60.80
41318;DHT22;27067;51.554;7.026;2022-12-18T07:21:50;15.70;60.80
41318;DHT22;27067;51.554;7.026;2022-12-18T07:24:16;15.60;60.70
41318;DHT22;27067;51.554;7.026;2022-12-18T07:26:42;15.70;60.60
41318;DHT22;27067;51.554;7.026;2022-12-18T07:29:08;15.60;60.20
41318;DHT22;27067;51.554;7.026;2022-12-18T07:31:34;15.60;59.70
41318;DHT22;27067;51.554;7.026;2022-12-18T07:33:59;15.60;60.10
41318;DHT22;27067;51.554;7.026;2022-12-18T07:36:25;15.60;59.30
41318;DHT22;27067;51.554;7.026;2022-12-18T07:38:50;15.60;59.10
41318;DHT22;27067;51.554;7.026;2022-12-18T07:41:18;15.60;59.20
41318;DHT22;27067;51.554;7.026;2022-12-18T07:43:44;15.60;59.30
41318;DHT22;27067;51.554;7.026;2022-12-18T07:46:10;15.60;59.10
41318;DHT22;27067;51.554;7.026;2022-12-18T07:48:36;15.60;58.90
41318;DHT22;27067;51.554;7.026;2022-12-18T07:51:03;15.60;58.90
41318;DHT22;27067;51.554;7.026;2022-12-18T07:53:30;15.70;58.70
41318;DHT22;27067;51.554;7.026;2022-12-18T07:56:07;15.80;58.70
41318;DHT22;27067;51.554;7.026;2022-12-18T07:58:34;15.70;58.70
41318;DHT22;27067;51.554;7.026;2022-12-18T08:01:04;15.80;58.80
41318;DHT22;27067;51.554;7.026;2022-12-18T08:03:30;15.70;59.50
41318;DHT22;27067;51.554;7.026;2022-12-18T08:06:03;15.70;61.90
41318;DHT22;27067;51.554;7.026;2022-12-18T08:08:30;15.70;62.50
41318;DHT22;27067;51.554;7.026;2022-12-18T08:10:58;14.20;61.90
41318;DHT22;27067;51.554;7.026;2022-12-18T08:13:24;15.70;62.60
41318;DHT22;27067;51.554;7.026;2022-12-18T08:16:08;15.60;62.50
41318;DHT22;27067;51.554;7.026;2022-12-18T08:18:35;15.60;62.30
41318;DHT22;27067;51.554;7.026;2022-12-18T08:21:28;15.60;62.30
41318;DHT22;27067;51.554;7.026;2022-12-18T08:23:56;15.50;62.20
41318;DHT22;27067;51.554;7.026;2022-12-18T08:26:24;15.50;62.10
41318;DHT22;27067;51.554;7.026;2022-12-18T08:28:50;15.50;61.90
41318;DHT22;27067;51.554;7.026;2022-12-18T08:31:17;15.50;61.70
41318;DHT22;27067;51.554;7.026;2022-12-18T08:33:42;15.60;61.60
41318;DHT22;27067;51.554;7.026;2022-12-18T08:36:09;15.60;61.40
41318;DHT22;27067;51.554;7.026;2022-12-18T08:38:35;15.60;61.40
41318;DHT22;27067;51.554;7.026;2022-12-18T08:41:03;15.50;61.50
41318;DHT22;27067;51.554;7.026;2022-12-18T08:43:29;15.60;61.80
41318;DHT22;27067;51.554;7.026;2022-12-18T08:46:16;15.60;61.80
41318;DHT22;27067;51.554;7.026;2022-12-18T08:48:43;15.60;61.80
41318;DHT22;27067;51.554;7.026;2022-12-18T08:51:09;15.70;61.70
41318;DHT22;27067;51.554;7.026;2022-12-18T08:53:38;15.70;62.20
41318;DHT22;27067;51.554;7.026;2022-12-18T08:56:04;15.80;61.50
41318;DHT22;27067;51.554;7.026;2022-12-18T08:58:30;15.80;61.40
41318;DHT22;27067;51.554;7.026;2022-12-18T09:01:06;15.90;61.40
41318;DHT22;27067;51.554;7.026;2022-12-18T09:03:34;15.90;61.30
41318;DHT22;27067;51.554;7.026;2022-12-18T09:05:59;16.00;61.30
41318;DHT22;27067;51.554;7.026;2022-12-18T09:08:26;15.90;61.10
41318;DHT22;27067;51.554;7.026;2022-12-18T09:10:54;16.00;61.20
41318;DHT22;27067;51.554;7.026;2022-12-18T09:13:21;16.00;61.30
41318;DHT22;27067;51.554;7.026;2022-12-18T09:15:49;15.90;61.20
41318;DHT22;27067;51.554;7.026;2022-12-18T09:18:17;15.80;61.10
41318;DHT22;27067;51.554;7.026;2022-12-18T09:20:44;15.80;61.10
41318;DHT22;27067;51.554;7.026;2022-12-18T09:23:10;15.60;60.80
41318;DHT22;27067;51.554;7.026;2022-12-18T09:25:36;15.80;60.70
41318;DHT22;27067;51.554;7.026;2022-12-18T09:28:05;15.80;60.60
41318;DHT22;27067;51.554;7.026;2022-12-18T09:30:31;15.80;60.50
41318;DHT22;27067;51.554;7.026;2022-12-18T09:32:59;15.70;60.50
41318;DHT22;27067;51.554;7.026;2022-12-18T09:35:25;15.70;60.30
41318;DHT22;27067;51.554;7.026;2022-12-18T09:37:50;15.80;60.30
41318;DHT22;27067;51.554;7.026;2022-12-18T09:40:19;15.80;60.20
41318;DHT22;27067;51.554;7.026;2022-12-18T09:42:50;15.80;60.10
41318;DHT22;27067;51.554;7.026;2022-12-18T09:45:18;15.90;60.10
41318;DHT22;27067;51.554;7.026;2022-12-18T09:47:45;15.90;60.00
41318;DHT22;27067;51.554;7.026;2022-12-18T09:50:34;15.90;59.90
41318;DHT22;27067;51.554;7.026;2022-12-18T09:53:10;15.90;59.80
41318;DHT22;27067;51.554;7.026;2022-12-18T09:55:41;15.90;59.70
41318;DHT22;27067;51.554;7.026;2022-12-18T09:58:12;15.90;59.90
41318;DHT22;27067;51.554;7.026;2022-12-18T10:00:39;16.00;60.00
41318;DHT22;27067;51.554;7.026;2022-12-18T10:03:10;16.10;60.00
41318;DHT22;27067;51.554;7.026;2022-12-18T10:08:46;16.20;59.90
41318;DHT22;27067;51.554;7.026;2022-12-18T10:17:43;16.40;59.80
41318;DHT22;27067;51.554;7.026;2022-12-18T10:22:53;16.40;59.90
41318;DHT22;27067;51.554;7.026;2022-12-18T10:25:34;16.40;59.90
41318;DHT22;27067;51.554;7.026;2022-12-18T10:28:11;16.40;60.00
41318;DHT22;27067;51.554;7.026;2022-12-18T10:30:39;16.40;60.10
41318;DHT22;27067;51.554;7.026;2022-12-18T10:33:05;16.40;60.10
41318;DHT22;27067;51.554;7.026;2022-12-18T10:35:31;16.40;60.20
41318;DHT22;27067;51.554;7.026;2022-12-18T10:38:07;16.40;60.30
41318;DHT22;27067;51.554;7.026;2022-12-18T10:43:30;16.30;60.40
41318;DHT22;27067;51.554;7.026;2022-12-18T10:48:55;16.30;60.50
41318;DHT22;27067;51.554;7.026;2022-12-18T10:51:24;17.10;61.10
41318;DHT22;27067;51.554;7.026;2022-12-18T10:54:14;16.30;60.50
41318;DHT22;27067;51.554;7.026;2022-12-18T10:56:38;16.30;60.40
41318;DHT22;27067;51.554;7.026;2022-12-18T10:59:10;16.30;60.40
41318;DHT22;27067;51.554;7.026;2022-12-18T11:01:47;16.30;60.60
41318;DHT22;27067;51.554;7.026;2022-12-18T11:04:20;16.30;60.70
41318;DHT22;27067;51.554;7.026;2022-12-18T11:06:57;16.30;60.80
41318;DHT22;27067;51.554;7.026;2022-12-18T11:09:28;16.30;60.50
41318;DHT22;27067;51.554;7.026;2022-12-18T11:11:56;16.30;60.50
41318;DHT22;27067;51.554;7.026;2022-12-18T11:14:27;16.20;60.40
41318;DHT22;27067;51.554;7.026;2022-12-18T11:16:54;16.20;60.70
41318;DHT22;27067;51.554;7.026;2022-12-18T11:21:52;16.20;61.10
41318;DHT22;27067;51.554;7.026;2022-12-18T11:24:27;17.20;61.60
41318;DHT22;27067;51.554;7.026;2022-12-18T11:26:55;16.30;60.90
41318;DHT22;27067;51.554;7.026;2022-12-18T11:29:34;16.40;60.80
41318;DHT22;27067;51.554;7.026;2022-12-18T11:32:29;16.40;60.70
41318;DHT22;27067;51.554;7.026;2022-12-18T11:35:16;16.50;60.60
41318;DHT22;27067;51.554;7.026;2022-12-18T11:37:48;16.50;60.70
41318;DHT22;27067;51.554;7.026;2022-12-18T11:40:19;16.50;60.80
41318;DHT22;27067;51.554;7.026;2022-12-18T11:42:53;16.50;60.90
41318;DHT22;27067;51.554;7.026;2022-12-18T11:45:34;16.50;61.00
41318;DHT22;27067;51.554;7.026;2022-12-18T11:48:06;16.60;61.10
41318;DHT22;27067;51.554;7.026;2022-12-18T11:50:55;16.50;61.10
41318;DHT22;27067;51.554;7.026;2022-12-18T11:53:22;16.50;61.20
41318;DHT22;27067;51.554;7.026;2022-12-18T11:56:05;16.50;61.10
41318;DHT22;27067;51.554;7.026;2022-12-18T12:06:53;16.40;61.30
41318;DHT22;27067;51.554;7.026;2022-12-18T12:12:35;16.50;61.60
41318;DHT22;27067;51.554;7.026;2022-12-18T12:17:49;16.50;62.00
41318;DHT22;27067;51.554;7.026;2022-12-18T12:26:27;16.50;62.50
41318;DHT22;27067;51.554;7.026;2022-12-18T12:29:09;16.60;62.60
41318;DHT22;27067;51.554;7.026;2022-12-18T12:32:01;16.60;62.90
41318;DHT22;27067;51.554;7.026;2022-12-18T12:34:34;16.60;63.00
41318;DHT22;27067;51.554;7.026;2022-12-18T12:40:01;16.60;63.30
41318;DHT22;27067;51.554;7.026;2022-12-18T12:42:40;16.50;63.40
41318;DHT22;27067;51.554;7.026;2022-12-18T12:45:36;16.50;63.70
41318;DHT22;27067;51.554;7.026;2022-12-18T12:48:06;16.40;63.80
41318;DHT22;27067;51.554;7.026;2022-12-18T12:50:34;16.40;64.10
41318;DHT22;27067;51.554;7.026;2022-12-18T12:53:01;16.50;64.10
41318;DHT22;27067;51.554;7.026;2022-12-18T12:55:31;16.50;64.00
41318;DHT22;27067;51.554;7.026;2022-12-18T12:58:23;16.50;63.60
41318;DHT22;27067;51.554;7.026;2022-12-18T13:01:22;16.50;63.40
41318;DHT22;27067;51.554;7.026;2022-12-18T13:04:00;16.50;63.20
41318;DHT22;27067;51.554;7.026;2022-12-18T13:09:04;16.50;63.20
41318;DHT22;27067;51.554;7.026;2022-12-18T13:14:44;16.50;63.40
41318;DHT22;27067;51.554;7.026;2022-12-18T13:19:49;16.50;63.70
41318;DHT22;27067;51.554;7.026;2022-12-18T13:22:28;16.50;63.90
41318;DHT22;27067;51.554;7.026;2022-12-18T13:24:55;16.50;64.00
41318;DHT22;27067;51.554;7.026;2022-12-18T13:27:46;16.40;64.00
41318;DHT22;27067;51.554;7.026;2022-12-18T13:30:46;16.40;64.40
41318;DHT22;27067;51.554;7.026;2022-12-18T13:38:37;16.50;65.00
41318;DHT22;27067;51.554;7.026;2022-12-18T13:41:25;16.50;65.10
41318;DHT22;27067;51.554;7.026;2022-12-18T13:43:53;16.50;65.20
41318;DHT22;27067;51.554;7.026;2022-12-18T13:46:20;16.60;65.20
41318;DHT22;27067;51.554;7.026;2022-12-18T13:49:05;16.60;65.20
41318;DHT22;27067;51.554;7.026;2022-12-18T13:51:33;16.60;65.20
41318;DHT22;27067;51.554;7.026;2022-12-18T13:54:02;16.60;65.20
41318;DHT22;27067;51.554;7.026;2022-12-18T13:56:32;16.70;65.30
41318;DHT22;27067;51.554;7.026;2022-12-18T13:59:13;16.70;65.20
41318;DHT22;27067;51.554;7.026;2022-12-18T14:01:52;16.60;64.80
41318;DHT22;27067;51.554;7.026;2022-12-18T14:06:52;16.60;64.80
41318;DHT22;27067;51.554;7.026;2022-12-18T14:09:25;16.50;64.90
41318;DHT22;27067;51.554;7.026;2022-12-18T14:11:52;16.50;65.00
41318;DHT22;27067;51.554;7.026;2022-12-18T14:14:18;16.50;65.10
41318;DHT22;27067;51.554;7.026;2022-12-18T14:16:46;16.50;65.10
41318;DHT22;27067;51.554;7.026;2022-12-18T14:19:14;16.60;65.30
41318;DHT22;27067;51.554;7.026;2022-12-18T14:21:48;16.60;65.30
41318;DHT22;27067;51.554;7.026;2022-12-18T14:24:20;16.60;65.30
41318;DHT22;27067;51.554;7.026;2022-12-18T14:26:48;16.60;65.20
41318;DHT22;27067;51.554;7.026;2022-12-18T14:29:24;16.70;64.90
41318;DHT22;27067;51.554;7.026;2022-12-18T14:32:12;16.60;64.70
41318;DHT22;27067;51.554;7.026;2022-12-18T14:34:39;16.60;64.60
41318;DHT22;27067;51.554;7.026;2022-12-18T14:37:07;16.60;64.70
41318;DHT22;27067;51.554;7.026;2022-12-18T14:39:34;16.60;64.70
41318;DHT22;27067;51.554;7.026;2022-12-18T14:42:00;16.60;64.60
41318;DHT22;27067;51.554;7.026;2022-12-18T14:44:25;16.60;64.40
41318;DHT22;27067;51.554;7.026;2022-12-18T14:46:51;16.50;64.20
41318;DHT22;27067;51.554;7.026;2022-12-18T14:49:29;16.50;64.20
41318;DHT22;27067;51.554;7.026;2022-12-18T14:52:13;16.50;64.20
41318;DHT22;27067;51.554;7.026;2022-12-18T14:54:46;16.50;64.10
41318;DHT22;27067;51.554;7.026;2022-12-18T14:57:20;16.50;64.00
41318;DHT22;27067;51.554;7.026;2022-12-18T14:59:46;16.50;64.40
41318;DHT22;27067;51.554;7.026;2022-12-18T15:02:18;16.50;63.60
41318;DHT22;27067;51.554;7.026;2022-12-18T15:04:45;16.50;63.50
41318;DHT22;27067;51.554;7.026;2022-12-18T15:07:12;16.60;63.60
41318;DHT22;27067;51.554;7.026;2022-12-18T15:09:40;16.60;63.50
41318;DHT22;27067;51.554;7.026;2022-12-18T15:12:31;16.60;63.40
41318;DHT22;27067;51.554;7.026;2022-12-18T15:14:58;16.70;63.50
41318;DHT22;27067;51.554;7.026;2022-12-18T15:17:24;16.70;63.50
41318;DHT22;27067;51.554;7.026;2022-12-18T15:19:52;16.70;63.40
41318;DHT22;27067;51.554;7.026;2022-12-18T15:24:46;16.80;63.60
41318;DHT22;27067;51.554;7.026;2022-12-18T15:27:33;16.80;63.50
41318;DHT22;27067;51.554;7.026;2022-12-18T15:30:03;16.80;63.70
41318;DHT22;27067;51.554;7.026;2022-12-18T15:32:38;16.80;63.90
41318;DHT22;27067;51.554;7.026;2022-12-18T15:37:37;16.80;63.80
41318;DHT22;27067;51.554;7.026;2022-12-18T15:40:04;16.90;63.80
41318;DHT22;27067;51.554;7.026;2022-12-18T15:42:30;16.90;63.80
41318;DHT22;27067;51.554;7.026;2022-12-18T15:45:14;16.90;63.80
41318;DHT22;27067;51.554;7.026;2022-12-18T15:47:40;16.90;63.70
41318;DHT22;27067;51.554;7.026;2022-12-18T15:50:09;16.90;63.60
41318;DHT22;27067;51.554;7.026;2022-12-18T15:52:41;16.90;63.50
41318;DHT22;27067;51.554;7.026;2022-12-18T15:55:14;16.90;63.50
41318;DHT22;27067;51.554;7.026;2022-12-18T15:57:58;16.90;63.40
41318;DHT22;27067;51.554;7.026;2022-12-18T16:00:24;16.90;63.40
41318;DHT22;27067;51.554;7.026;2022-12-18T16:02:51;16.90;63.40
41318;DHT22;27067;51.554;7.026;2022-12-18T16:05:18;16.80;63.40
41318;DHT22;27067;51.554;7.026;2022-12-18T16:07:44;16.80;63.40
41318;DHT22;27067;51.554;7.026;2022-12-18T16:10:11;16.70;63.40
41318;DHT22;27067;51.554;7.026;2022-12-18T16:12:36;16.70;63.40
41318;DHT22;27067;51.554;7.026;2022-12-18T16:15:03;16.70;63.40
41318;DHT22;27067;51.554;7.026;2022-12-18T16:17:29;16.70;63.50
41318;DHT22;27067;51.554;7.026;2022-12-18T16:19:55;16.70;63.40
41318;DHT22;27067;51.554;7.026;2022-12-18T16:22:26;16.70;63.20
41318;DHT22;27067;51.554;7.026;2022-12-18T16:24:54;16.70;63.20
41318;DHT22;27067;51.554;7.026;2022-12-18T16:27:21;16.70;63.20
41318;DHT22;27067;51.554;7.026;2022-12-18T16:29:47;16.80;63.20
41318;DHT22;27067;51.554;7.026;2022-12-18T16:32:15;16.80;63.20
41318;DHT22;27067;51.554;7.026;2022-12-18T16:34:41;16.80;63.30
41318;DHT22;27067;51.554;7.026;2022-12-18T16:37:09;16.80;63.30
41318;DHT22;27067;51.554;7.026;2022-12-18T16:39:36;16.80;63.40
41318;DHT22;27067;51.554;7.026;2022-12-18T16:42:14;16.80;63.40
41318;DHT22;27067;51.554;7.026;2022-12-18T16:44:42;16.80;63.40
41318;DHT22;27067;51.554;7.026;2022-12-18T16:47:08;16.70;63.40
41318;DHT22;27067;51.554;7.026;2022-12-18T16:49:33;16.70;63.50
41318;DHT22;27067;51.554;7.026;2022-12-18T16:51:59;16.70;63.60
41318;DHT22;27067;51.554;7.026;2022-12-18T16:54:25;16.70;63.70
41318;DHT22;27067;51.554;7.026;2022-12-18T16:56:50;16.70;64.40
41318;DHT22;27067;51.554;7.026;2022-12-18T16:59:16;16.80;64.00
41318;DHT22;27067;51.554;7.026;2022-12-18T17:01:42;16.80;63.90
41318;DHT22;27067;51.554;7.026;2022-12-18T17:04:08;16.90;64.00
41318;DHT22;27067;51.554;7.026;2022-12-18T17:06:38;16.90;64.00
41318;DHT22;27067;51.554;7.026;2022-12-18T17:09:06;16.90;64.20
41318;DHT22;27067;51.554;7.026;2022-12-18T17:11:34;16.90;64.30
41318;DHT22;27067;51.554;7.026;2022-12-18T17:14:08;16.90;64.30
41318;DHT22;27067;51.554;7.026;2022-12-18T17:16:34;16.90;64.30
41318;DHT22;27067;51.554;7.026;2022-12-18T17:19:00;16.90;64.30
41318;DHT22;27067;51.554;7.026;2022-12-18T17:21:25;16.90;64.30
41318;DHT22;27067;51.554;7.026;2022-12-18T17:23:51;16.90;64.30